Time;durP1;ratioP1;P1;durP2;ratioP2;P2;SDS_P1;SDS_P2;PMS_P1;PMS_P2;Temp;Humidity;BMP_temperature;BMP_pressure;BME280_temperature;BME280_humidity;BME280_pressure;Samples;Min_cycle;Max_cycle;Signal;HPM_P1;HPM_P2
2023/05/21 00:02:17;;;;;;;37.30;30.25;;;;;;;;;;5016312;28;20399;-74
2023/05/21 00:04:46;;;;;;;39.60;31.48;;;;;;;;;;5040486;28;20020;-75
2023/05/21 00:07:14;;;;;;;38.97;28.80;;;;;;;;;;5051741;28;20433;-73
2023/05/21 00:09:40;;;;;;;37.75;29.58;;;;;;;;;;5036870;28;20021;-74
2023/05/21 00:12:09;;;;;;;38.28;29.48;;;;;;;;;;5048322;28;20155;-74
2023/05/21 00:14:35;;;;;;;34.90;28.17;;;;;;;;;;5037750;28;20018;-75
2023/05/21 00:17:01;;;;;;;35.70;28.23;;;;;;;;;;5041281;28;20017;-74
2023/05/21 00:19:27;;;;;;;38.90;30.27;;;;;;;;;;5044514;28;20031;-74
2023/05/21 00:21:53;;;;;;;40.25;30.10;;;;;;;;;;5034663;28;20033;-74
2023/05/21 00:24:20;;;;;;;38.00;29.17;;;;;;;;;;5047431;28;20028;-74
2023/05/21 00:26:46;;;;;;;35.85;29.20;;;;;;;;;;5020665;28;20552;-74
2023/05/21 00:29:12;;;;;;;37.83;29.90;;;;;;;;;;5039467;28;20029;-76
2023/05/21 00:31:38;;;;;;;36.42;27.98;;;;;;;;;;5045753;28;20127;-75
2023/05/21 00:34:04;;;;;;;38.30;30.05;;;;;;;;;;5034535;28;20029;-75
2023/05/21 00:36:30;;;;;;;36.53;29.77;;;;;;;;;;5027533;28;20048;-74
2023/05/21 00:38:56;;;;;;;32.25;27.00;;;;;;;;;;5038859;28;20053;-74
2023/05/21 00:41:24;;;;;;;34.20;28.55;;;;;;;;;;5038428;28;20052;-74
2023/05/21 00:43:51;;;;;;;36.15;29.98;;;;;;;;;;5047306;28;20387;-74
2023/05/21 00:46:18;;;;;;;35.58;29.23;;;;;;;;;;5031020;28;20108;-74
2023/05/21 00:48:45;;;;;;;37.08;28.05;;;;;;;;;;5037171;28;20032;-75
2023/05/21 00:51:12;;;;;;;38.30;30.67;;;;;;;;;;5050770;28;20494;-74
2023/05/21 00:53:38;;;;;;;35.88;29.52;;;;;;;;;;5035938;28;20021;-74
2023/05/21 00:56:04;;;;;;;35.95;28.98;;;;;;;;;;5047254;28;20403;-75
2023/05/21 00:58:32;;;;;;;34.10;28.83;;;;;;;;;;5055860;23;20045;-76
2023/05/21 01:01:02;;;;;;;39.08;30.27;;;;;;;;;;5031534;28;20029;-76
2023/05/21 01:03:29;;;;;;;36.83;28.15;;;;;;;;;;5030868;28;20029;-76
2023/05/21 01:05:58;;;;;;;34.03;28.40;;;;;;;;;;5048451;28;20091;-76
2023/05/21 01:08:26;;;;;;;36.90;28.75;;;;;;;;;;5032461;28;20487;-76
2023/05/21 01:10:52;;;;;;;37.28;28.50;;;;;;;;;;5042493;28;20074;-76
2023/05/21 01:13:19;;;;;;;36.85;29.48;;;;;;;;;;5021276;28;20049;-76
2023/05/21 01:15:46;;;;;;;38.45;27.90;;;;;;;;;;5046752;28;20104;-76
2023/05/21 01:18:13;;;;;;;33.50;27.50;;;;;;;;;;5030779;28;20143;-75
2023/05/21 01:20:41;;;;;;;36.50;28.85;;;;;;;;;;5037767;28;20021;-75
2023/05/21 01:23:07;;;;;;;37.88;29.52;;;;;;;;;;5040489;28;20495;-76
2023/05/21 01:25:34;;;;;;;38.28;30.17;;;;;;;;;;5045240;28;20033;-76
2023/05/21 01:28:00;;;;;;;36.17;28.65;;;;;;;;;;5049728;28;20056;-75
2023/05/21 01:30:27;;;;;;;36.17;28.98;;;;;;;;;;5035364;28;20017;-75
2023/05/21 01:33:03;;;;;;;39.30;29.65;;;;;;;;;;5031227;28;20049;-76
2023/05/21 01:35:29;;;;;;;37.55;30.10;;;;;;;;;;5044416;28;20013;-74
2023/05/21 01:37:55;;;;;;;39.58;30.42;;;;;;;;;;5033236;28;20014;-75
2023/05/21 01:40:33;;;;;;;44.92;31.73;;;;;;;;;;5046270;28;20030;-75
2023/05/21 01:42:59;;;;;;;38.50;30.10;;;;;;;;;;5039590;28;20025;-75
2023/05/21 01:45:26;;;;;;;39.83;29.65;;;;;;;;;;5037401;28;20029;-75
2023/05/21 01:47:54;;;;;;;38.05;30.42;;;;;;;;;;5029949;28;20033;-75
2023/05/21 01:50:20;;;;;;;34.95;27.90;;;;;;;;;;5036012;28;20086;-75
2023/05/21 01:52:53;;;;;;;39.35;29.52;;;;;;;;;;5046444;28;20049;-75
2023/05/21 01:55:23;;;;;;;38.15;28.90;;;;;;;;;;5046220;28;20075;-75
2023/05/21 01:57:53;;;;;;;41.55;28.95;;;;;;;;;;5037299;28;20032;-76
2023/05/21 02:00:20;;;;;;;38.40;29.08;;;;;;;;;;5034186;28;20034;-74
2023/05/21 02:02:46;;;;;;;33.55;27.13;;;;;;;;;;5041441;28;20045;-76
2023/05/21 02:05:13;;;;;;;37.28;29.33;;;;;;;;;;5042675;28;20032;-75
2023/05/21 02:07:39;;;;;;;39.83;31.13;;;;;;;;;;5047966;28;20025;-75
2023/05/21 02:10:06;;;;;;;36.00;29.30;;;;;;;;;;5035036;28;20097;-76
2023/05/21 02:12:32;;;;;;;43.95;33.28;;;;;;;;;;5039620;28;20018;-76
2023/05/21 02:14:58;;;;;;;39.70;30.83;;;;;;;;;;5026647;28;20064;-75
2023/05/21 02:18:03;;;;;;;40.95;30.83;;;;;;;;;;5045572;28;20063;-75
2023/05/21 02:20:30;;;;;;;40.05;30.75;;;;;;;;;;5035241;28;20047;-75
2023/05/21 02:22:56;;;;;;;37.67;29.40;;;;;;;;;;5044593;28;20503;-75
2023/05/21 02:25:22;;;;;;;38.30;31.15;;;;;;;;;;5046092;28;20025;-75
2023/05/21 02:27:52;;;;;;;38.33;29.58;;;;;;;;;;5036528;28;20346;-76
2023/05/21 02:30:18;;;;;;;40.33;30.75;;;;;;;;;;5049706;28;20021;-76
2023/05/21 02:32:44;;;;;;;41.47;31.17;;;;;;;;;;5015923;28;20018;-76
2023/05/21 02:35:11;;;;;;;38.30;31.42;;;;;;;;;;5033725;28;20040;-76
2023/05/21 02:37:39;;;;;;;44.38;30.73;;;;;;;;;;5047923;28;20029;-76
2023/05/21 02:40:06;;;;;;;39.47;30.20;;;;;;;;;;5034359;28;20029;-76
2023/05/21 02:42:32;;;;;;;43.38;31.90;;;;;;;;;;5039253;28;20544;-76
2023/05/21 02:44:58;;;;;;;40.60;31.15;;;;;;;;;;5035477;28;20167;-76
2023/05/21 02:47:24;;;;;;;41.38;31.92;;;;;;;;;;5039586;28;20063;-76
2023/05/21 02:49:51;;;;;;;43.80;31.15;;;;;;;;;;5049446;28;20040;-76
2023/05/21 02:52:17;;;;;;;40.10;31.25;;;;;;;;;;5036475;28;20097;-76
2023/05/21 02:54:44;;;;;;;36.58;30.02;;;;;;;;;;5027966;28;20039;-76
2023/05/21 02:57:10;;;;;;;40.83;31.00;;;;;;;;;;5042954;28;20043;-76
2023/05/21 02:59:36;;;;;;;42.22;32.20;;;;;;;;;;5038242;28;20029;-76
2023/05/21 03:02:02;;;;;;;37.67;29.58;;;;;;;;;;5048933;28;20482;-75
2023/05/21 03:04:28;;;;;;;39.22;30.73;;;;;;;;;;5037877;28;20036;-76
2023/05/21 03:06:54;;;;;;;38.72;30.77;;;;;;;;;;5026600;28;20479;-76
2023/05/21 03:09:20;;;;;;;42.13;32.20;;;;;;;;;;5040390;28;20036;-76
2023/05/21 03:11:47;;;;;;;43.50;30.73;;;;;;;;;;5048766;28;20095;-76
2023/05/21 03:14:13;;;;;;;44.65;31.40;;;;;;;;;;5036324;28;20020;-76
2023/05/21 03:16:40;;;;;;;40.70;31.80;;;;;;;;;;5028502;28;20021;-76
2023/05/21 03:19:10;;;;;;;39.80;31.52;;;;;;;;;;5042421;28;20075;-75
2023/05/21 03:21:36;;;;;;;37.08;28.25;;;;;;;;;;5052706;28;20059;-76
2023/05/21 03:24:02;;;;;;;39.67;30.95;;;;;;;;;;5036018;28;20475;-76
2023/05/21 03:26:29;;;;;;;40.25;31.00;;;;;;;;;;5047703;28;20032;-75
2023/05/21 03:28:55;;;;;;;37.80;29.60;;;;;;;;;;5040280;28;20025;-75
2023/05/21 03:31:22;;;;;;;41.25;30.60;;;;;;;;;;5022189;28;20148;-75
2023/05/21 03:33:48;;;;;;;41.35;29.77;;;;;;;;;;5048901;28;20060;-75
2023/05/21 03:36:14;;;;;;;37.65;29.27;;;;;;;;;;5049588;28;20028;-75
2023/05/21 03:38:40;;;;;;;36.33;29.35;;;;;;;;;;5037588;28;20411;-75
2023/05/21 03:41:08;;;;;;;39.47;30.70;;;;;;;;;;5052595;28;20013;-76
2023/05/21 03:43:34;;;;;;;38.60;29.80;;;;;;;;;;5049321;28;20017;-76
2023/05/21 03:46:00;;;;;;;33.90;27.73;;;;;;;;;;5049508;28;20029;-76
2023/05/21 03:48:26;;;;;;;34.03;27.90;;;;;;;;;;5033262;28;20319;-74
2023/05/21 03:50:52;;;;;;;34.28;27.52;;;;;;;;;;5050234;28;20096;-75
2023/05/21 03:53:18;;;;;;;38.22;28.48;;;;;;;;;;5053117;28;20108;-75
2023/05/21 03:55:44;;;;;;;33.80;27.20;;;;;;;;;;5037164;28;20104;-75
2023/05/21 03:58:10;;;;;;;35.75;28.92;;;;;;;;;;5047631;28;20156;-75
2023/05/21 04:00:36;;;;;;;39.17;28.85;;;;;;;;;;5031635;28;20530;-75
2023/05/21 04:03:03;;;;;;;36.45;28.23;;;;;;;;;;5031805;28;20109;-75
2023/05/21 04:05:30;;;;;;;34.95;27.20;;;;;;;;;;5045302;28;20040;-75
2023/05/21 04:07:57;;;;;;;34.60;28.27;;;;;;;;;;5051367;28;20029;-75
2023/05/21 04:10:23;;;;;;;32.58;26.80;;;;;;;;;;5024195;28;20116;-75
2023/05/21 04:12:51;;;;;;;35.65;27.67;;;;;;;;;;5024715;28;20064;-75
2023/05/21 04:15:17;;;;;;;31.77;25.58;;;;;;;;;;5043151;28;20048;-75
2023/05/21 04:17:44;;;;;;;31.48;25.52;;;;;;;;;;5017323;28;20025;-75
2023/05/21 04:20:11;;;;;;;34.10;26.25;;;;;;;;;;5029830;28;20162;-75
2023/05/21 04:22:37;;;;;;;31.60;25.17;;;;;;;;;;5037518;28;20025;-75
2023/05/21 04:25:03;;;;;;;27.48;23.98;;;;;;;;;;5041387;28;20024;-74
2023/05/21 04:27:29;;;;;;;29.08;23.85;;;;;;;;;;5043794;28;20107;-74
2023/05/21 04:29:56;;;;;;;25.80;21.58;;;;;;;;;;5033435;28;20057;-75
2023/05/21 04:32:22;;;;;;;29.13;22.10;;;;;;;;;;5046684;28;20013;-75
2023/05/21 04:34:48;;;;;;;25.42;20.90;;;;;;;;;;5039157;28;20021;-75
2023/05/21 04:37:18;;;;;;;23.92;18.88;;;;;;;;;;5038746;28;20028;-76
2023/05/21 04:39:44;;;;;;;23.90;18.30;;;;;;;;;;5046505;28;20033;-76
2023/05/21 04:42:10;;;;;;;23.85;18.63;;;;;;;;;;5034378;28;20040;-78
2023/05/21 04:44:37;;;;;;;20.65;18.27;;;;;;;;;;5044825;28;20530;-75
2023/05/21 04:47:03;;;;;;;20.08;16.70;;;20.00;67.20;;;;;;5032831;28;20021;-75
2023/05/21 04:49:28;;;;;;;21.55;16.83;;;20.80;65.40;;;;;;5030898;28;20033;-75
2023/05/21 04:51:54;;;;;;;24.25;17.35;;;22.00;60.30;;;;;;5031212;28;20029;-75
2023/05/21 04:54:20;;;;;;;20.65;15.15;;;23.10;56.20;;;;;;5047062;28;20034;-75
2023/05/21 04:56:46;;;;;;;19.30;16.30;;;24.00;54.20;;;;;;5038230;28;20016;-75
2023/05/21 04:59:12;;;;;;;17.02;15.05;;;24.60;52.00;;;;;;5039076;28;20168;-75
2023/05/21 05:01:38;;;;;;;17.10;15.05;;;24.40;52.50;;;;;;5036803;28;20029;-75
2023/05/21 05:04:04;;;;;;;16.88;14.73;;;25.20;49.70;;;;;;5049191;28;20025;-76
2023/05/21 05:06:30;;;;;;;17.27;15.50;;;25.50;49.40;;;;;;5045468;28;20021;-75
2023/05/21 05:08:56;;;;;;;16.55;14.88;;;25.50;49.90;;;;;;5038115;28;20025;-75
2023/05/21 05:11:22;;;;;;;15.70;13.93;;;25.20;49.60;;;;;;5043273;28;20021;-76
2023/05/21 05:13:47;;;;;;;17.17;14.07;;;25.70;49.40;;;;;;5050482;28;20054;-75
2023/05/21 05:16:16;;;;;;;20.25;13.77;;;27.20;45.40;;;;;;5029566;28;20021;-76
2023/05/21 05:18:41;;;;;;;16.05;14.30;;;28.10;44.00;;;;;;5019139;28;20126;-75
2023/05/21 05:21:07;;;;;;;16.63;14.80;;;28.50;42.50;;;;;;5040026;28;20487;-75
2023/05/21 05:23:33;;;;;;;15.25;13.73;;;;;;;;;;5045740;28;20021;-75
2023/05/21 05:25:59;;;;;;;16.17;14.30;;;;;;;;;;5038194;28;20021;-75
2023/05/21 05:28:25;;;;;;;15.15;13.65;;;25.90;48.50;;;;;;5048812;28;20070;-76
2023/05/21 05:30:51;;;;;;;19.23;14.75;;;26.20;47.40;;;;;;5041313;28;20029;-76
2023/05/21 05:33:16;;;;;;;16.95;14.95;;;26.40;47.20;;;;;;5046282;28;20426;-75
2023/05/21 05:35:42;;;;;;;18.70;14.68;;;25.50;48.20;;;;;;5039354;28;20049;-75
2023/05/21 05:38:07;;;;;;;17.92;14.13;;;25.20;49.40;;;;;;5050019;28;20051;-75
2023/05/21 05:40:33;;;;;;;18.52;13.85;;;25.50;49.10;;;;;;5022672;28;20028;-76
2023/05/21 05:42:59;;;;;;;17.38;14.82;;;25.50;49.10;;;;;;5044849;28;20472;-75
2023/05/21 05:45:25;;;;;;;16.70;14.90;;;;;;;;;;5029333;28;20046;-74
2023/05/21 05:47:51;;;;;;;17.13;15.15;;;;;;;;;;5037018;28;20082;-75
2023/05/21 05:50:17;;;;;;;17.25;14.30;;;25.20;50.10;;;;;;5037928;28;20107;-76
2023/05/21 05:52:43;;;;;;;18.08;14.48;;;25.30;50.00;;;;;;5047099;28;20096;-75
2023/05/21 05:55:10;;;;;;;15.98;14.27;;;25.50;48.60;;;;;;5026927;28;20025;-75
2023/05/21 05:57:36;;;;;;;15.65;13.98;;;25.00;50.30;;;;;;5039354;28;20569;-75
2023/05/21 06:00:06;;;;;;;16.90;14.43;;;25.90;48.70;;;;;;5052160;28;20037;-75
2023/05/21 06:02:31;;;;;;;17.00;14.05;;;26.60;46.90;;;;;;5041043;28;20032;-76
2023/05/21 06:04:57;;;;;;;15.43;13.82;;;27.20;45.50;;;;;;5050143;28;20026;-74
2023/05/21 06:07:22;;;;;;;16.58;14.18;;;27.70;44.00;;;;;;5050692;28;20028;-74
2023/05/21 06:09:48;;;;;;;18.63;14.95;;;27.80;44.00;;;;;;5038522;28;20119;-74
2023/05/21 06:12:14;;;;;;;16.00;13.88;;;27.80;44.50;;;;;;5032841;28;20395;-75
2023/05/21 06:14:41;;;;;;;17.70;14.25;;;27.30;44.90;;;;;;5040795;28;20022;-74
2023/05/21 06:17:07;;;;;;;16.00;14.35;;;;;;;;;;5042464;28;20495;-75
2023/05/21 06:19:33;;;;;;;15.27;13.65;;;;;;;;;;5047613;28;20040;-75
2023/05/21 06:21:59;;;;;;;14.52;13.02;;;;;;;;;;5037148;28;20029;-75
2023/05/21 06:24:25;;;;;;;14.95;13.40;;;;;;;;;;5048994;28;20034;-75
2023/05/21 06:26:51;;;;;;;18.92;14.20;;;;;;;;;;5041537;28;20067;-75
2023/05/21 06:29:17;;;;;;;15.95;14.27;;;;;;;;;;5040743;28;20021;-75
2023/05/21 06:31:44;;;;;;;15.93;14.25;;;;;;;;;;5048604;28;20029;-75
2023/05/21 06:34:10;;;;;;;20.58;14.75;;;;;;;;;;5036624;28;20026;-75
2023/05/21 06:36:36;;;;;;;18.13;14.48;;;;;;;;;;5046179;28;20014;-75
2023/05/21 06:39:03;;;;;;;17.52;15.45;;;;;;;;;;5024518;28;20082;-74
2023/05/21 06:41:29;;;;;;;16.15;14.52;;;;;;;;;;5021795;28;20022;-75
2023/05/21 06:43:55;;;;;;;19.92;15.90;;;;;;;;;;5049743;28;20551;-75
2023/05/21 06:46:21;;;;;;;18.27;15.82;;;;;;;;;;5037763;28;20062;-75
2023/05/21 06:48:47;;;;;;;18.50;16.50;;;;;;;;;;5044402;28;20032;-75
2023/05/21 06:51:13;;;;;;;18.75;15.35;;;;;;;;;;5044165;28;20021;-74
2023/05/21 06:53:39;;;;;;;17.75;15.70;;;;;;;;;;5038014;28;20026;-74
2023/05/21 06:56:06;;;;;;;16.75;14.98;;;;;;;;;;5049385;28;20056;-79
2023/05/21 06:58:32;;;;;;;18.23;14.48;;;;;;;;;;5036621;23;20064;-71
2023/05/21 07:00:58;;;;;;;16.63;14.93;;;;;;;;;;5032506;28;20017;-75
2023/05/21 07:03:24;;;;;;;21.48;15.93;;;;;;;;;;5020254;28;20029;-73
2023/05/21 07:05:50;;;;;;;18.55;14.48;;;;;;;;;;5029864;28;20018;-74
2023/05/21 07:08:18;;;;;;;16.50;14.35;;;;;;;;;;4995163;28;20536;-74
2023/05/21 07:10:45;;;;;;;17.50;14.10;;;;;;;;;;5021426;28;20022;-73
2023/05/21 07:13:11;;;;;;;16.77;13.85;;;;;;;;;;5023681;28;20025;-73
2023/05/21 07:15:37;;;;;;;16.13;14.32;;;;;;;;;;5032837;28;20538;-73
2023/05/21 07:18:03;;;;;;;18.67;15.52;;;;;;;;;;5015216;28;20025;-73
2023/05/21 07:20:29;;;;;;;17.27;14.77;;;;;;;;;;5027666;28;20026;-73
2023/05/21 07:22:56;;;;;;;18.00;14.25;;;;;;;;;;5021281;28;20045;-73
2023/05/21 07:25:22;;;;;;;16.63;14.00;;;25.40;54.30;;;;;;5019737;28;20041;-74
2023/05/21 07:27:48;;;;;;;16.60;13.27;;;25.90;53.40;;;;;;5028110;28;20022;-75
2023/05/21 07:30:13;;;;;;;14.98;13.45;;;26.20;51.60;;;;;;5015724;28;20029;-73
2023/05/21 07:32:39;;;;;;;14.85;13.20;;;26.70;50.90;;;;;;5025795;28;20033;-74
2023/05/21 07:35:05;;;;;;;14.50;12.82;;;27.50;49.30;;;;;;5005220;28;20018;-76
2023/05/21 07:37:31;;;;;;;15.52;13.02;;;28.60;47.70;;;;;;5000591;28;20518;-76
2023/05/21 07:39:57;;;;;;;14.82;12.60;;;29.20;45.50;;;;;;5028740;28;20033;-73
2023/05/21 07:42:23;;;;;;;17.77;12.75;;;29.90;45.40;;;;;;5017120;28;20021;-74
2023/05/21 07:44:49;;;;;;;12.75;11.43;;;30.50;43.20;;;;;;5024222;28;20553;-74
2023/05/21 07:47:15;;;;;;;13.57;12.18;;;30.70;41.80;;;;;;5022997;28;20034;-75
2023/05/21 07:49:40;;;;;;;15.55;12.45;;;30.00;41.80;;;;;;5017316;28;20022;-75
2023/05/21 07:52:06;;;;;;;13.10;11.70;;;29.70;42.90;;;;;;5028989;28;20044;-74
2023/05/21 07:54:33;;;;;;;16.90;12.13;;;29.90;43.10;;;;;;5017671;28;20042;-74
2023/05/21 07:57:00;;;;;;;18.58;13.40;;;30.00;42.60;;;;;;5022600;28;20053;-74
2023/05/21 07:59:26;;;;;;;14.27;12.55;;;30.00;42.20;;;;;;5025993;28;20080;-74
2023/05/21 08:01:51;;;;;;;13.32;11.98;;;30.10;42.50;;;;;;5016358;28;20037;-74
2023/05/21 08:04:17;;;;;;;15.52;12.38;;;30.30;43.10;;;;;;5028339;28;20193;-74
2023/05/21 08:06:43;;;;;;;13.38;11.90;;;29.90;43.20;;;;;;5018352;28;20396;-75
2023/05/21 08:09:08;;;;;;;13.75;11.70;;;30.30;43.20;;;;;;5021737;28;20038;-74
2023/05/21 08:11:34;;;;;;;13.98;12.63;;;30.90;42.20;;;;;;5031215;28;20021;-74
2023/05/21 08:14:00;;;;;;;15.85;12.30;;;30.80;41.20;;;;;;4997738;28;20449;-75
2023/05/21 08:16:25;;;;;;;13.95;12.48;;;30.70;42.40;;;;;;5026818;28;20010;-74
2023/05/21 08:18:51;;;;;;;13.13;11.23;;;30.70;41.40;;;;;;5019202;28;20064;-74
2023/05/21 08:21:17;;;;;;;15.23;11.73;;;30.80;42.30;;;;;;5002107;28;20040;-74
2023/05/21 08:23:43;;;;;;;17.90;11.13;;;30.80;43.20;;;;;;5009075;28;20124;-75
2023/05/21 08:26:08;;;;;;;14.60;11.57;;;30.90;42.70;;;;;;5016624;28;20032;-74
2023/05/21 08:28:37;;;;;;;15.55;12.05;;;30.90;42.50;;;;;;5016127;28;20021;-74
2023/05/21 08:31:03;;;;;;;13.80;11.32;;;30.80;42.20;;;;;;5031371;28;20029;-75
2023/05/21 08:33:28;;;;;;;14.48;11.10;;;31.00;41.80;;;;;;5017711;28;20022;-76
2023/05/21 08:35:54;;;;;;;16.27;12.65;;;31.40;41.50;;;;;;5027702;28;20030;-75
2023/05/21 08:38:20;;;;;;;14.77;12.50;;;;;;;;;;5014418;28;20043;-75
2023/05/21 08:40:46;;;;;;;14.30;12.20;;;;;;;;;;5026861;28;20030;-75
2023/05/21 08:43:15;;;;;;;14.68;11.82;;;28.70;44.60;;;;;;5019903;28;20030;-70
2023/05/21 08:45:43;;;;;;;13.80;12.40;;;28.50;44.60;;;;;;5026174;28;20033;-72
2023/05/21 08:48:15;;;;;;;18.70;13.07;;;28.50;45.50;;;;;;5030254;28;20453;-72
2023/05/21 08:50:42;;;;;;;38.15;30.92;;;29.00;45.30;;;;;;5031062;28;20026;-70
2023/05/21 08:53:08;;;;;;;25.40;22.70;;;30.00;43.80;;;;;;5031262;28;20033;-72
2023/05/21 08:55:35;;;;;;;17.08;14.63;;;30.00;41.80;;;;;;5031208;28;20399;-73
2023/05/21 08:58:03;;;;;;;14.57;12.38;;;30.60;41.10;;;;;;5012205;28;20026;-71
2023/05/21 09:00:29;;;;;;;17.13;12.50;;;29.70;42.50;;;;;;5031214;28;20495;-72
2023/05/21 09:02:55;;;;;;;15.30;12.18;;;29.40;43.60;;;;;;5031071;28;20079;-71
2023/05/21 09:05:22;;;;;;;15.23;11.38;;;30.00;42.40;;;;;;5030299;28;20080;-71
2023/05/21 09:08:11;;;;;;;16.40;14.15;;;29.90;41.70;;;;;;5028385;28;20029;-73
2023/05/21 09:10:46;;;;;;;14.75;11.73;;;29.30;43.80;;;;;;5013007;28;20029;-72
2023/05/21 09:13:13;;;;;;;13.70;12.05;;;29.70;42.90;;;;;;5031001;28;20037;-72
2023/05/21 09:15:38;;;;;;;12.57;11.38;;;30.10;42.50;;;;;;5030962;28;20078;-72
2023/05/21 09:18:04;;;;;;;13.98;11.57;;;30.50;40.80;;;;;;5030042;28;20109;-72
2023/05/21 09:20:29;;;;;;;12.80;10.73;;;30.20;41.60;;;;;;5031191;28;20030;-71
2023/05/21 09:22:55;;;;;;;13.98;11.73;;;30.10;41.00;;;;;;5030824;28;20479;-71
2023/05/21 09:25:23;;;;;;;13.63;12.00;;;30.10;41.30;;;;;;5029884;28;20553;-72
2023/05/21 09:27:49;;;;;;;16.70;11.23;;;30.40;40.00;;;;;;5028264;28;20531;-72
2023/05/21 09:30:17;;;;;;;13.93;12.43;;;30.20;40.90;;;;;;5028665;28;20657;-71
2023/05/21 09:32:44;;;;;;;12.77;11.15;;;30.00;41.80;;;;;;5029004;28;20100;-72
2023/05/21 09:35:10;;;;;;;20.02;17.10;;;30.00;41.80;;;;;;5028941;28;20108;-71
2023/05/21 09:37:43;;;;;;;12.98;11.45;;;30.70;42.20;;;;;;5028375;28;20116;-72
2023/05/21 09:40:10;;;;;;;15.90;12.50;;;30.90;38.80;;;;;;5029593;28;20029;-72
2023/05/21 09:42:39;;;;;;;12.02;10.82;;;30.20;41.20;;;;;;5030787;28;20483;-71
2023/05/21 09:45:08;;;;;;;15.55;10.68;;;30.40;40.50;;;;;;5030705;28;20208;-71
2023/05/21 09:47:42;;;;;;;12.52;11.23;;;29.80;40.90;;;;;;5030214;28;20380;-71
2023/05/21 09:50:10;;;;;;;16.90;11.32;;;28.90;43.20;;;;;;5030596;28;20052;-71
2023/05/21 09:52:36;;;;;;;12.18;10.90;;;29.00;43.10;;;;;;5030780;28;20028;-72
2023/05/21 09:55:06;;;;;;;14.32;11.25;;;28.70;43.20;;;;;;5030818;28;20029;-71
2023/05/21 09:57:31;;;;;;;12.88;10.98;;;28.90;42.50;;;;;;5030149;28;20025;-73
2023/05/21 09:59:57;;;;;;;14.48;12.77;;;29.50;42.50;;;;;;5030470;28;20045;-71
2023/05/21 10:02:25;;;;;;;11.50;10.35;;;29.90;41.80;;;;;;5012960;28;20033;-72
2023/05/21 10:04:53;;;;;;;16.27;13.50;;;29.60;41.10;;;;;;5030489;28;20025;-71
2023/05/21 10:07:26;;;;;;;17.40;12.93;;;29.50;42.70;;;;;;5029793;28;20053;-71
2023/05/21 10:09:56;;;;;;;19.98;17.13;;;29.90;42.80;;;;;;5032195;28;20057;-69
2023/05/21 10:12:24;;;;;;;20.33;16.77;;;30.20;41.60;;;;;;5034559;28;20021;-73
2023/05/21 10:15:21;;;;;;;20.70;16.33;;;30.20;43.00;;;;;;5016493;28;20049;-71
2023/05/21 10:17:48;;;;;;;26.45;18.25;;;30.40;42.90;;;;;;5013548;28;20057;-70
2023/05/21 10:20:14;;;;;;;13.10;10.18;;;30.40;43.70;;;;;;5033775;28;20032;-72
2023/05/21 10:22:40;;;;;;;14.10;11.02;;;29.90;41.40;;;;;;5033911;28;20029;-72
2023/05/21 10:25:12;;;;;;;12.07;10.90;;;29.50;41.70;;;;;;5034020;28;20029;-71
2023/05/21 10:27:38;;;;;;;18.08;12.80;;;29.30;41.20;;;;;;5015503;28;20021;-71
2023/05/21 10:30:05;;;;;;;14.13;11.10;;;29.10;43.70;;;;;;5034002;28;20025;-72
2023/05/21 10:32:32;;;;;;;14.38;12.68;;;29.50;42.80;;;;;;5033976;28;20117;-72
2023/05/21 10:34:58;;;;;;;12.35;11.15;;;29.80;43.10;;;;;;5032135;28;20029;-71
2023/05/21 10:37:26;;;;;;;12.05;10.85;;;28.90;43.00;;;;;;5032733;28;20022;-71
2023/05/21 10:39:53;;;;;;;13.85;11.45;;;28.40;43.30;;;;;;5033885;28;20115;-71
2023/05/21 10:42:40;;;;;;;12.23;10.90;;;;;;;;;;5033591;28;20431;-72
2023/05/21 10:45:15;;;;;;;12.60;10.45;;;;;;;;;;5033560;28;20491;-68
2023/05/21 10:47:56;;;;;;;12.27;11.00;;;;;;;;;;5032685;28;20515;-70
2023/05/21 10:50:28;;;;;;;12.65;10.75;;;;;;;;;;5032729;28;20033;-71
2023/05/21 10:52:57;;;;;;;12.45;10.48;;;;;;;;;;5014656;28;20098;-71
2023/05/21 10:55:30;;;;;;;12.65;10.60;;;;;;;;;;5033092;28;20044;-71
2023/05/21 10:58:15;;;;;;;14.75;11.70;;;;;;;;;;5032715;28;20033;-71
2023/05/21 11:00:42;;;;;;;12.98;11.57;;;;;;;;;;5033891;28;20152;-72
2023/05/21 11:03:10;;;;;;;14.07;12.23;;;;;;;;;;5034986;28;20109;-72
2023/05/21 11:05:52;;;;;;;14.65;11.32;;;;;;;;;;5033815;28;20088;-72
2023/05/21 11:08:21;;;;;;;12.55;10.10;;;;;;;;;;5032261;28;20029;-72
2023/05/21 11:10:54;;;;;;;10.98;9.68;;;;;;;;;;5033109;28;20021;-71
2023/05/21 11:13:21;;;;;;;11.90;8.70;;;;;;;;;;5032992;28;20500;-72
2023/05/21 11:16:04;;;;;;;11.10;9.27;;;;;;;;;;5033115;28;20101;-71
2023/05/21 11:18:38;;;;;;;13.65;9.02;;;;;;;;;;5014616;28;20022;-76
2023/05/21 11:21:14;;;;;;;10.63;9.30;;;;;;;;;;5033318;28;20071;-77
2023/05/21 11:23:52;;;;;;;11.85;8.98;;;;;;;;;;5035378;28;20099;-75
2023/05/21 11:26:18;;;;;;;12.40;9.48;;;;;;;;;;5034881;28;20028;-76
2023/05/21 11:28:44;;;;;;;10.15;8.95;;;;;;;;;;5015444;28;20394;-78
2023/05/21 11:31:25;;;;;;;14.10;10.65;;;;;;;;;;5033246;28;20453;-76
2023/05/21 11:34:27;;;;;;;11.75;9.20;;;;;;;;;;5031798;28;20037;-76
2023/05/21 11:36:53;;;;;;;;;;;;;;;;;;4934160;29;20051;-77
2023/05/21 11:39:23;;;;;;;10.27;8.48;;;;;;;;;;5014458;28;20006;-77
2023/05/21 11:41:49;;;;;;;8.55;7.65;;;;;;;;;;5032041;28;20028;-76
2023/05/21 11:44:15;;;;;;;9.80;7.82;;;;;;;;;;5031174;28;20026;-77
2023/05/21 11:46:42;;;;;;;9.25;8.30;;;;;;;;;;5030277;28;20034;-77
2023/05/21 11:49:09;;;;;;;11.90;8.70;;;;;;;;;;5032113;28;20018;-77
2023/05/21 11:51:40;;;;;;;13.88;9.45;;;;;;;;;;5034129;28;20032;-76
2023/05/21 11:54:08;;;;;;;14.75;8.90;;;;;;;;;;5034416;28;20112;-77
2023/05/21 11:56:40;;;;;;;12.25;9.70;;;;;;;;;;5035868;28;20128;-77
2023/05/21 11:59:13;;;;;;;11.20;8.70;;;;;;;;;;5035722;28;20041;-77
2023/05/21 12:01:41;;;;;;;10.48;9.38;;;;;;;;;;5032971;28;20049;-78
2023/05/21 12:04:07;;;;;;;9.98;8.98;;;;;;;;;;5033132;28;20438;-77
2023/05/21 12:06:33;;;;;;;10.85;9.38;;;;;;;;;;5032612;28;20029;-77
2023/05/21 12:08:59;;;;;;;9.85;8.40;;;;;;;;;;5031978;28;20030;-77
2023/05/21 12:11:26;;;;;;;9.85;8.23;;;;;;;;;;5032683;28;20025;-77
2023/05/21 12:13:52;;;;;;;10.63;8.63;;;;;;;;;;5032489;28;20507;-77
2023/05/21 12:16:18;;;;;;;10.65;9.18;;;;;;;;;;5032118;28;20068;-78
2023/05/21 12:18:44;;;;;;;10.90;9.13;;;;;;;;;;5031761;28;20044;-78
2023/05/21 12:21:10;;;;;;;12.27;9.85;;;;;;;;;;5032412;28;20021;-78
2023/05/21 12:23:36;;;;;;;13.25;9.93;;;;;;;;;;5032519;28;20022;-77
2023/05/21 12:26:02;;;;;;;10.63;9.45;;;;;;;;;;5032284;28;20030;-79
2023/05/21 12:35:49;;;;;;;12.30;10.43;;;;;;;;;;4950476;29;20039;-77
2023/05/21 12:44:43;;;;;;;14.60;11.73;;;;;;;;;;5032124;28;20038;-76
2023/05/21 12:50:39;;;;;;;12.55;10.98;;;;;;;;;;4931595;29;20116;-76
2023/05/21 12:53:15;;;;;;;13.40;10.68;;;;;;;;;;4950212;28;20480;-76
2023/05/21 12:55:47;;;;;;;11.82;10.57;;;;;;;;;;5031679;28;20026;-77
2023/05/21 12:58:15;;;;;;;11.27;10.10;;;;;;;;;;5030742;28;20029;-76
2023/05/21 13:00:42;;;;;;;11.48;10.27;;;;;;;;;;5060096;22;20053;-77
2023/05/21 13:03:08;;;;;;;13.38;9.85;;;;;;;;;;5051140;28;20080;-76
2023/05/21 13:05:34;;;;;;;11.45;10.25;;;;;;;;;;5050996;28;20467;-76
2023/05/21 13:08:00;;;;;;;11.57;10.30;;;;;;;;;;5050681;28;20048;-76
2023/05/21 13:10:26;;;;;;;15.27;10.63;;;;;;;;;;5033080;28;20025;-76
2023/05/21 13:12:52;;;;;;;13.52;10.95;;;;;;;;;;5051237;28;20075;-76
2023/05/21 13:15:18;;;;;;;13.07;11.23;;;;;;;;;;5050989;28;20021;-77
2023/05/21 13:17:44;;;;;;;11.98;10.60;;;;;;;;;;5050460;28;20047;-76
2023/05/21 13:20:25;;;;;;;13.82;11.52;;;;;;;;;;5051023;28;20025;-76
2023/05/21 13:22:51;;;;;;;15.55;11.50;;;;;;;;;;5051180;28;20017;-76
2023/05/21 13:25:19;;;;;;;13.18;10.85;;;;;;;;;;5050892;28;20032;-76
2023/05/21 13:27:46;;;;;;;12.02;10.77;;;;;;;;;;5050402;28;20048;-76
2023/05/21 13:30:12;;;;;;;13.30;12.00;;;;;;;;;;5050678;28;20032;-76
2023/05/21 13:32:39;;;;;;;14.40;11.25;;;;;;;;;;5051152;28;20036;-76
2023/05/21 13:35:05;;;;;;;12.95;11.50;;;;;;;;;;5051008;28;20021;-76
2023/05/21 13:37:31;;;;;;;14.85;10.93;;;;;;;;;;5050187;28;20120;-75
2023/05/21 13:39:58;;;;;;;15.25;11.25;;;;;;;;;;5050714;28;20021;-76
2023/05/21 13:42:24;;;;;;;13.35;10.98;;;;;;;;;;5050885;28;20029;-76
2023/05/21 13:44:50;;;;;;;11.63;10.40;;;;;;;;;;5052428;28;20029;-76
2023/05/21 13:47:16;;;;;;;12.55;10.85;;;;;;;;;;5053675;28;20029;-76
2023/05/21 13:49:42;;;;;;;14.95;11.55;;;;;;;;;;5036669;28;20178;-76
2023/05/21 13:52:33;;;;;;;13.27;11.05;;;;;;;;;;5054993;28;20041;-77
2023/05/21 13:54:59;;;;;;;12.95;10.98;;;;;;;;;;5054717;28;20392;-78
2023/05/21 13:57:25;;;;;;;14.73;10.70;;;;;;;;;;5054151;28;20395;-77
2023/05/21 13:59:52;;;;;;;14.50;11.43;;;;;;;;;;5055004;28;20035;-76